createdAt,value
2016-06-09T00:00:43.345Z,84.14
2016-06-09T00:01:43.333Z,84.14
2016-06-09T00:02:43.320Z,84.04
2016-06-09T00:03:43.964Z,83.56
2016-06-09T00:04:43.295Z,83.56
2016-06-09T00:05:43.283Z,83.94
2016-06-09T00:06:43.286Z,83.18
2016-06-09T00:07:43.257Z,83.37
2016-06-09T00:08:43.246Z,84.04
2016-06-09T00:09:43.248Z,83.37
2016-06-09T00:10:43.220Z,82.98
2016-06-09T00:11:43.207Z,82.98
2016-06-09T00:12:43.194Z,83.03
2016-06-09T00:13:43.166Z,83.12
2016-06-09T00:14:43.169Z,82.89
2016-06-09T00:15:43.141Z,82.89
2016-06-09T00:16:43.128Z,83.08
2016-06-09T00:17:43.132Z,82.98
2016-06-09T00:18:43.478Z,83.37
2016-06-09T00:19:42.951Z,83.08
2016-06-09T00:20:43.079Z,82.98
2016-06-09T00:21:43.082Z,82.51
2016-06-09T00:22:42.897Z,82.7
2016-06-09T00:23:43.042Z,83.08
2016-06-09T00:24:43.028Z,82.89
2016-06-09T00:25:42.859Z,82.98
2016-06-09T00:26:43.019Z,82.27
2016-06-09T00:27:43.007Z,82.08
2016-06-09T00:28:42.979Z,82.75
2016-06-09T00:29:42.965Z,82.56
2016-06-09T00:30:42.953Z,82.08
2016-06-09T00:31:42.941Z,81.7
2016-06-09T00:32:42.928Z,81.89
2016-06-09T00:33:43.540Z,82.37
2016-06-09T00:34:42.903Z,82.65
2016-06-09T00:35:42.735Z,82.65
2016-06-09T00:36:42.862Z,82.08
2016-06-09T00:37:42.709Z,82.27
2016-06-09T00:38:42.838Z,81.64
2016-06-09T00:39:42.824Z,81.79
2016-06-09T00:40:42.827Z,81.93
2016-06-09T00:41:42.815Z,81.93
2016-06-09T00:42:42.787Z,81.26
2016-06-09T00:43:42.774Z,81.16
2016-06-09T00:44:42.778Z,81.07
2016-06-09T00:45:42.764Z,80.68
2016-06-09T00:46:42.799Z,80.87
2016-06-09T00:47:42.740Z,81.35
2016-06-09T00:48:42.774Z,81.74
2016-06-09T00:49:42.699Z,81.54
2016-06-09T00:50:42.686Z,81.26
2016-06-09T00:51:42.675Z,81.45
2016-06-09T00:52:42.661Z,81.84
2016-06-09T00:53:42.649Z,81.64
2016-06-09T00:54:42.637Z,81.64
2016-06-09T00:55:42.623Z,82.03
2016-06-09T00:56:42.657Z,81.45
2016-06-09T00:57:42.583Z,81.26
2016-06-09T00:58:42.586Z,81.26
2016-06-09T00:59:42.558Z,81.45
2016-06-09T01:00:42.561Z,80.97
2016-06-09T01:01:42.533Z,81.16
2016-06-09T01:02:42.520Z,81.22
2016-06-09T01:03:42.679Z,81.45
2016-06-09T01:04:42.526Z,81.07
2016-06-09T01:05:42.483Z,81.6
2016-06-09T01:06:42.470Z,81.35
2016-06-09T01:07:42.457Z,81.79
2016-06-09T01:08:42.444Z,81.45
2016-06-09T01:09:42.433Z,81.35
2016-06-09T01:10:42.420Z,81.41
2016-06-09T01:11:42.407Z,82.18
2016-06-09T01:12:42.426Z,81.6
2016-06-09T01:13:42.382Z,81.93
2016-06-09T01:14:42.354Z,81.93
2016-06-09T01:15:42.357Z,81.54
2016-06-09T01:16:42.344Z,81.93
2016-06-09T01:17:42.316Z,81.84
2016-06-09T01:18:42.367Z,81.45
2016-06-09T01:19:42.291Z,81.54
2016-06-09T01:20:42.278Z,81.89
2016-06-09T01:21:42.267Z,81.6
2016-06-09T01:22:42.270Z,81.41
2016-06-09T01:23:42.225Z,81.89
2016-06-09T01:24:42.229Z,81.79
2016-06-09T01:25:42.216Z,81.22
2016-06-09T01:26:42.203Z,81.74
2016-06-09T01:27:42.190Z,81.64
2016-06-09T01:28:42.006Z,81.51
2016-06-09T01:29:42.167Z,81.89
2016-06-09T01:30:42.153Z,81.41
2016-06-09T01:31:42.125Z,81.7
2016-06-09T01:32:42.128Z,81.98
2016-06-09T01:33:42.600Z,81.7
2016-06-09T01:34:42.087Z,81.31
2016-06-09T01:35:42.074Z,80.93
2016-06-09T01:36:42.063Z,81.31
2016-06-09T01:37:42.049Z,81.31
2016-06-09T01:38:42.022Z,81.02
2016-06-09T01:39:42.025Z,81.22
2016-06-09T01:40:42.043Z,81.02
2016-06-09T01:41:41.999Z,81.12
2016-06-09T01:42:42.002Z,81.35
2016-06-09T01:43:41.959Z,81.12
2016-06-09T01:44:41.946Z,81.26
2016-06-09T01:45:41.934Z,81.89
2016-06-09T01:46:41.921Z,81.7
2016-06-09T01:47:41.753Z,81.7
2016-06-09T01:48:41.975Z,81.79
2016-06-09T01:49:42.009Z,81.31
2016-06-09T01:50:41.871Z,81.16
2016-06-09T01:51:41.874Z,81.31
2016-06-09T01:52:41.846Z,80.4
2016-06-09T01:53:41.833Z,80.55
2016-06-09T01:54:41.820Z,80.07
2016-06-09T01:55:41.808Z,79.97
2016-06-09T01:56:41.795Z,80.12
2016-06-09T01:57:41.798Z,80.41
2016-06-09T01:58:41.770Z,80.32
2016-06-09T01:59:41.743Z,80.32
2016-06-09T02:00:41.745Z,80.22
2016-06-09T02:01:41.732Z,80.7
2016-06-09T02:02:41.721Z,80.6
2016-06-09T02:03:42.208Z,79.74
2016-06-09T02:04:41.695Z,79.99
2016-06-09T02:05:41.667Z,80.08
2016-06-09T02:06:41.655Z,80.08
2016-06-09T02:07:41.642Z,79.93
2016-06-09T02:08:41.629Z,80.03
2016-06-09T02:09:41.617Z,79.93
2016-06-09T02:10:41.604Z,79.55
2016-06-09T02:11:41.591Z,79.74
2016-06-09T02:12:41.563Z,79.45
2016-06-09T02:13:41.567Z,79.45
2016-06-09T02:14:41.554Z,78.82
2016-06-09T02:15:41.542Z,79.74
2016-06-09T02:16:41.529Z,79.45
2016-06-09T02:17:41.501Z,78.88
2016-06-09T02:18:41.487Z,78.78
2016-06-09T02:19:41.476Z,79.26
2016-06-09T02:20:41.463Z,79.39
2016-06-09T02:21:41.450Z,79.01
2016-06-09T02:22:41.438Z,78.97
2016-06-09T02:23:41.425Z,78.44
2016-06-09T02:24:41.413Z,78.53
2016-06-09T02:25:41.416Z,78.34
2016-06-09T02:26:41.372Z,78.49
2016-06-09T02:27:41.359Z,78.4
2016-06-09T02:28:41.348Z,78.4
2016-06-09T02:29:41.335Z,78.2
2016-06-09T02:30:41.322Z,78.25
2016-06-09T02:31:41.341Z,78.63
2016-06-09T02:32:41.313Z,78.4
2016-06-09T02:33:41.159Z,78.59
2016-06-09T02:34:41.256Z,78.2
2016-06-09T02:35:41.259Z,77.92
2016-06-09T02:36:41.247Z,77.95
2016-06-09T02:37:41.234Z,78.02
2016-06-09T02:38:41.207Z,77.63
2016-06-09T02:39:41.209Z,78.4
2016-06-09T02:40:41.180Z,77.73
2016-06-09T02:41:41.184Z,78.3
2016-06-09T02:42:41.172Z,78.05
2016-06-09T02:43:41.127Z,77.63
2016-06-09T02:44:41.147Z,77.92
2016-06-09T02:45:41.117Z,78.4
2016-06-09T02:46:41.106Z,78.4
2016-06-09T02:47:41.077Z,78.4
2016-06-09T02:48:41.314Z,78.78
2016-06-09T02:49:41.068Z,78.49
2016-06-09T02:50:41.040Z,78.3
2016-06-09T02:51:41.027Z,78.4
2016-06-09T02:52:41.014Z,78.72
2016-06-09T02:53:41.002Z,78.53
2016-06-09T02:54:40.989Z,78.49
2016-06-09T02:55:40.977Z,77.95
2016-06-09T02:56:40.964Z,77.86
2016-06-09T02:57:40.951Z,78.25
2016-06-09T02:58:40.940Z,78.59
2016-06-09T02:59:40.927Z,78.4
2016-06-09T03:00:40.913Z,78.3
2016-06-09T03:01:40.886Z,77.95
2016-06-09T03:02:40.889Z,78.05
2016-06-09T03:03:40.876Z,78.88
2016-06-09T03:04:41.833Z,80.03
2016-06-09T03:05:40.821Z,79.64
2016-06-09T03:06:40.839Z,79.74
2016-06-09T03:07:40.795Z,79.26
2016-06-09T03:08:40.783Z,78.92
2016-06-09T03:09:40.786Z,78.72
2016-06-09T03:10:40.757Z,78.88
2016-06-09T03:11:40.761Z,78.92
2016-06-09T03:12:40.764Z,79.21
2016-06-09T03:13:40.736Z,79.01
2016-06-09T03:14:40.722Z,79.3
2016-06-09T03:15:40.710Z,79.49
2016-06-09T03:16:40.682Z,79.97
2016-06-09T03:17:40.669Z,79.74
2016-06-09T03:18:40.657Z,79.55
2016-06-09T03:19:40.863Z,80.26
2016-06-09T03:20:40.632Z,80.07
2016-06-09T03:21:40.619Z,79.68
2016-06-09T03:22:40.606Z,79.49
2016-06-09T03:23:40.578Z,79.3
2016-06-09T03:24:40.425Z,79.59
2016-06-09T03:25:40.569Z,79.68
2016-06-09T03:26:40.541Z,79.78
2016-06-09T03:27:40.528Z,80.16
2016-06-09T03:28:40.375Z,79.59
2016-06-09T03:29:40.503Z,79.49
2016-06-09T03:30:40.491Z,79.59
2016-06-09T03:31:40.478Z,79.39
2016-06-09T03:32:40.466Z,79.49
2016-06-09T03:33:40.297Z,80.32
2016-06-09T03:34:40.284Z,80.35
2016-06-09T03:35:40.429Z,80.45
2016-06-09T03:36:40.416Z,80.79
2016-06-09T03:37:40.230Z,80.7
2016-06-09T03:38:40.391Z,80.99
2016-06-09T03:39:40.378Z,81.66
2016-06-09T03:40:40.365Z,81.81
2016-06-09T03:41:40.352Z,81.75
2016-06-09T03:42:40.325Z,81.56
2016-06-09T03:43:40.312Z,81.31
2016-06-09T03:44:40.299Z,81.08
2016-06-09T03:45:40.287Z,81.12
2016-06-09T03:46:40.274Z,80.99
2016-06-09T03:47:40.246Z,80.89
2016-06-09T03:48:40.249Z,81.27
2016-06-09T03:49:40.362Z,81.51
2016-06-09T03:50:40.224Z,81.75
2016-06-09T03:51:40.211Z,81.75
2016-06-09T03:52:40.184Z,81.66
2016-06-09T03:53:40.187Z,81.46
2016-06-09T03:54:40.157Z,82.04
2016-06-09T03:55:40.177Z,82.04
2016-06-09T03:56:40.133Z,81.85
2016-06-09T03:57:39.980Z,81.75
2016-06-09T03:58:40.108Z,82.14
2016-06-09T03:59:40.095Z,82.42
2016-06-09T04:00:39.911Z,82.42
2016-06-09T04:01:40.070Z,82.71
2016-06-09T04:02:40.058Z,82.52
2016-06-09T04:03:40.046Z,82.52
2016-06-09T04:04:40.798Z,82.27
2016-06-09T04:05:40.005Z,81.51
2016-06-09T04:06:39.992Z,81.6
2016-06-09T04:07:39.980Z,81.89
2016-06-09T04:08:39.997Z,81.7
2016-06-09T04:09:39.954Z,82.08
2016-06-09T04:10:40.004Z,82.56
2016-06-09T04:11:39.914Z,82.46
2016-06-09T04:12:39.917Z,81.98
2016-06-09T04:13:39.888Z,82.65
2016-06-09T04:14:39.891Z,81.98
2016-06-09T04:15:39.880Z,82.65
2016-06-09T04:16:39.851Z,82.32
2016-06-09T04:17:39.838Z,82.18
2016-06-09T04:18:39.825Z,81.98
2016-06-09T04:19:40.282Z,82.08
2016-06-09T04:20:39.801Z,82.08
2016-06-09T04:21:39.787Z,81.98
2016-06-09T04:22:39.776Z,82.08
2016-06-09T04:23:39.763Z,81.7
2016-06-09T04:24:39.797Z,81.51
2016-06-09T04:25:39.738Z,81.79
2016-06-09T04:26:39.725Z,82.08
2016-06-09T04:27:39.713Z,82.18
2016-06-09T04:28:39.684Z,81.12
2016-06-09T04:29:39.688Z,81.12
2016-06-09T04:30:39.660Z,81.98
2016-06-09T04:31:39.663Z,81.51
2016-06-09T04:32:39.634Z,82.08
2016-06-09T04:33:39.638Z,81.51
2016-06-09T04:34:39.844Z,81.98
2016-06-09T04:35:39.440Z,81.84
2016-06-09T04:36:39.584Z,81.35
2016-06-09T04:37:39.572Z,81.6
2016-06-09T04:38:39.559Z,81.31
2016-06-09T04:39:39.546Z,81.26
2016-06-09T04:40:39.534Z,81.35
2016-06-09T04:41:39.506Z,81.31
2016-06-09T04:42:39.493Z,81.79
2016-06-09T04:43:39.497Z,81.84
2016-06-09T04:44:39.452Z,81.7
2016-06-09T04:45:39.455Z,81.26
2016-06-09T04:46:39.443Z,81.74
2016-06-09T04:47:39.446Z,81.79
2016-06-09T04:48:39.433Z,81.84
2016-06-09T04:49:39.406Z,81.7
2016-06-09T04:50:39.393Z,81.41
2016-06-09T04:51:39.380Z,82.18
2016-06-09T04:52:39.352Z,81.89
2016-06-09T04:53:39.355Z,81.84
2016-06-09T04:54:39.342Z,81.74
2016-06-09T04:55:39.314Z,81.84
2016-06-09T04:56:39.317Z,81.79
2016-06-09T04:57:39.306Z,81.89
2016-06-09T04:58:39.277Z,81.93
2016-06-09T04:59:39.279Z,82.46
2016-06-09T05:00:39.268Z,82.56
2016-06-09T05:01:39.239Z,82.51
2016-06-09T05:02:39.227Z,82.56
2016-06-09T05:03:39.230Z,82.56
2016-06-09T05:04:39.794Z,82.46
2016-06-09T05:05:39.189Z,82.85
2016-06-09T05:06:39.176Z,82.98
2016-06-09T05:07:39.164Z,83.04
2016-06-09T05:08:39.136Z,83.42
2016-06-09T05:09:39.138Z,83.61
2016-06-09T05:10:39.110Z,83.42
2016-06-09T05:11:39.114Z,83.52
2016-06-09T05:12:38.945Z,82.89
2016-06-09T05:13:39.072Z,82.85
2016-06-09T05:14:39.076Z,82.85
2016-06-09T05:15:39.048Z,82.85
2016-06-09T05:16:39.035Z,82.85
2016-06-09T05:17:39.023Z,82.85
2016-06-09T05:18:39.026Z,82.46
2016-06-09T05:19:39.888Z,82.79
2016-06-09T05:20:38.985Z,83.65
2016-06-09T05:21:38.972Z,83.33
2016-06-09T05:22:38.960Z,83.23
2016-06-09T05:23:38.947Z,83.91
2016-06-09T05:24:38.934Z,83.91
2016-06-09T05:25:38.923Z,83.52
2016-06-09T05:26:38.895Z,83.81
2016-06-09T05:27:38.898Z,83.91
2016-06-09T05:28:38.868Z,84.67
2016-06-09T05:29:38.919Z,83.81
2016-06-09T05:30:38.844Z,83.94
2016-06-09T05:31:38.847Z,83.71
2016-06-09T05:32:38.819Z,83.81
2016-06-09T05:33:38.806Z,84.48
2016-06-09T05:34:38.809Z,84.58
2016-06-09T05:35:38.798Z,84.48
2016-06-09T05:36:38.768Z,84.38
2016-06-09T05:37:38.756Z,84.67
2016-06-09T05:38:38.727Z,83.81
2016-06-09T05:39:38.731Z,83.81
2016-06-09T05:40:38.719Z,84.48
2016-06-09T05:41:38.753Z,85.05
2016-06-09T05:42:38.694Z,85.05
2016-06-09T05:43:38.711Z,85.34
2016-06-09T05:44:38.653Z,85.44
2016-06-09T05:45:38.686Z,85.25
2016-06-09T05:46:38.643Z,85.25
2016-06-09T05:47:38.630Z,85.05
2016-06-09T05:48:38.618Z,84.95
2016-06-09T05:49:38.605Z,84.86
2016-06-09T05:50:38.686Z,84.28
2016-06-09T05:51:38.596Z,85.1
2016-06-09T05:52:38.552Z,84.14
2016-06-09T05:53:38.539Z,83.75
2016-06-09T05:54:38.527Z,83.71
2016-06-09T05:55:38.562Z,84.14
2016-06-09T05:56:38.501Z,84.42
2016-06-09T05:57:38.474Z,83.94
2016-06-09T05:58:38.477Z,83.85
2016-06-09T05:59:38.480Z,83.56
2016-06-09T06:00:38.452Z,83.85
2016-06-09T06:01:38.440Z,83.65
2016-06-09T06:02:38.426Z,84.04
2016-06-09T06:03:38.415Z,83.56
2016-06-09T06:04:38.401Z,82.98
2016-06-09T06:05:38.373Z,83.37
2016-06-09T06:06:38.392Z,83.27
2016-06-09T06:07:38.348Z,84.14
2016-06-09T06:08:38.335Z,84.04
2016-06-09T06:09:38.323Z,83.18
2016-06-09T06:10:38.311Z,83.56
2016-06-09T06:11:38.298Z,82.89
2016-06-09T06:12:38.301Z,83.27
2016-06-09T06:13:38.320Z,83.03
2016-06-09T06:14:38.260Z,82.74
2016-06-09T06:15:38.248Z,83.08
2016-06-09T06:16:38.219Z,83.03
2016-06-09T06:17:38.238Z,83.56
2016-06-09T06:18:38.195Z,83.08
2016-06-09T06:19:38.495Z,83.37
2016-06-09T06:20:38.014Z,82.79
2016-06-09T06:21:38.173Z,82.79
2016-06-09T06:22:38.160Z,82.89
2016-06-09T06:23:38.148Z,83.12
2016-06-09T06:24:38.119Z,82.54
2016-06-09T06:25:38.107Z,82.26
2016-06-09T06:26:38.094Z,82.54
2016-06-09T06:27:38.082Z,82.35
2016-06-09T06:28:38.069Z,82.51
2016-06-09T06:29:38.073Z,83.12
2016-06-09T06:30:38.044Z,82.98
2016-06-09T06:31:38.094Z,83.56
2016-06-09T06:32:38.018Z,83.75
2016-06-09T06:33:38.022Z,83.94
2016-06-09T06:34:37.978Z,83.65
2016-06-09T06:35:38.482Z,84.04
2016-06-09T06:36:37.953Z,83.65
2016-06-09T06:37:37.956Z,83.65
2016-06-09T06:38:37.944Z,83.03
2016-06-09T06:39:37.931Z,83.03
2016-06-09T06:40:37.903Z,82.2
2016-06-09T06:41:37.906Z,82.1
2016-06-09T06:42:37.878Z,82.49
2016-06-09T06:43:37.866Z,82.01
2016-06-09T06:44:37.868Z,82.49
2016-06-09T06:45:37.840Z,81.72
2016-06-09T06:46:37.827Z,81.72
2016-06-09T06:47:37.831Z,82.1
2016-06-09T06:48:37.803Z,81.92
2016-06-09T06:49:37.650Z,81.82
2016-06-09T06:50:37.793Z,81.63
2016-06-09T06:51:37.780Z,81.92
2016-06-09T06:52:37.768Z,82.2
2016-06-09T06:53:37.755Z,82.3
2016-06-09T06:54:37.743Z,82.68
2016-06-09T06:55:37.730Z,82.78
2016-06-09T06:56:37.733Z,82.93
2016-06-09T06:57:37.689Z,83.31
2016-06-09T06:58:37.740Z,83.41
2016-06-09T06:59:37.665Z,83.85
2016-06-09T07:00:37.667Z,83.65
2016-06-09T07:01:37.639Z,83.7
2016-06-09T07:02:37.658Z,83.03
2016-06-09T07:03:37.630Z,83.65
2016-06-09T07:04:37.616Z,83.18
2016-06-09T07:05:37.605Z,83.65
2016-06-09T07:06:37.592Z,83.27
2016-06-09T07:07:37.580Z,83.94
2016-06-09T07:08:37.551Z,83.94
2016-06-09T07:09:37.539Z,83.7
2016-06-09T07:10:37.543Z,83.12
2016-06-09T07:11:37.529Z,83.6
2016-06-09T07:12:37.532Z,82.98
2016-06-09T07:13:37.504Z,82.74
2016-06-09T07:14:37.492Z,83.41
2016-06-09T07:15:37.463Z,83.22
2016-06-09T07:16:37.498Z,83.51
2016-06-09T07:17:37.438Z,83.31
2016-06-09T07:18:37.426Z,83.8
2016-06-09T07:19:37.429Z,83.65
2016-06-09T07:20:37.463Z,83.85
2016-06-09T07:21:37.388Z,83.27
2016-06-09T07:22:37.376Z,83.6
2016-06-09T07:23:37.363Z,83.56
2016-06-09T07:24:37.350Z,83.85
2016-06-09T07:25:37.339Z,84.71
2016-06-09T07:26:37.326Z,83.65
2016-06-09T07:27:37.313Z,83.8
2016-06-09T07:28:39.050Z,83.98
2016-06-09T07:29:37.288Z,84.66
2016-06-09T07:30:37.276Z,83.75
2016-06-09T07:31:37.263Z,83.41
2016-06-09T07:32:37.250Z,84.08
2016-06-09T07:33:37.237Z,83.89
2016-06-09T07:34:37.225Z,84.56
2016-06-09T07:35:37.212Z,83.98
2016-06-09T07:36:37.200Z,83.51
2016-06-09T07:37:37.187Z,83.22
2016-06-09T07:38:37.175Z,83.31
2016-06-09T07:39:37.162Z,83.7
2016-06-09T07:40:37.149Z,83.22
2016-06-09T07:41:37.137Z,82.93
2016-06-09T07:42:36.953Z,83.03
2016-06-09T07:43:36.955Z,83.51
2016-06-09T07:44:37.100Z,83.51
2016-06-09T07:45:37.087Z,83.7
2016-06-09T07:46:37.075Z,83.41
2016-06-09T07:47:37.062Z,83.98
2016-06-09T07:48:37.034Z,84.66
2016-06-09T07:49:37.021Z,83.7
2016-06-09T07:50:36.868Z,83.31
2016-06-09T07:51:36.997Z,83.22
2016-06-09T07:52:36.983Z,82.16
2016-06-09T07:53:36.971Z,82.54
2016-06-09T07:54:36.989Z,82.74
2016-06-09T07:55:36.946Z,83.12
2016-06-09T07:56:36.934Z,83.31
2016-06-09T07:57:36.921Z,83.8
2016-06-09T07:58:36.892Z,83.6
2016-06-09T07:59:36.896Z,83.45
2016-06-09T08:00:36.883Z,83.16
2016-06-09T08:01:36.871Z,83.54
2016-06-09T08:02:36.874Z,83.64
2016-06-09T08:03:37.486Z,82.97
2016-06-09T08:04:36.848Z,83.07
2016-06-09T08:05:36.821Z,82.97
2016-06-09T08:06:36.807Z,84.03
2016-06-09T08:07:36.796Z,82.97
2016-06-09T08:08:37.752Z,82.3
2016-06-09T08:09:36.785Z,82.49
2016-06-09T08:10:36.758Z,82.1
2016-06-09T08:11:36.808Z,82.3
2016-06-09T08:12:36.732Z,82.59
2016-06-09T08:13:38.970Z,82.59
2016-06-09T08:14:36.550Z,82.87
2016-06-09T08:15:36.726Z,82.53
2016-06-09T08:16:36.682Z,82.34
2016-06-09T08:17:36.670Z,82.05
2016-06-09T08:18:36.657Z,81.76
2016-06-09T08:19:36.661Z,82.53
2016-06-09T08:20:36.788Z,82.82
2016-06-09T08:21:36.620Z,81.76
2016-06-09T08:22:36.606Z,82.73
2016-06-09T08:23:36.689Z,81.96
2016-06-09T08:24:36.600Z,81.67
2016-06-09T08:25:36.629Z,81.67
2016-06-09T08:26:36.660Z,81.96
2016-06-09T08:27:36.736Z,81.86
2016-06-09T08:28:36.705Z,82.05
2016-06-09T08:29:36.733Z,81.67
2016-06-09T08:30:36.751Z,82.24
2016-06-09T08:31:36.754Z,82.73
2016-06-09T08:32:36.804Z,82.73
2016-06-09T08:33:36.806Z,82.24
2016-06-09T08:34:36.762Z,82.82
2016-06-09T08:35:36.724Z,82.63
2016-06-09T08:36:36.733Z,82.97
2016-06-09T08:37:36.788Z,83.07
2016-06-09T08:38:36.733Z,83.36
2016-06-09T08:39:36.725Z,83.36
2016-06-09T08:40:36.715Z,83.74
2016-06-09T08:41:36.705Z,84.8
2016-06-09T08:42:36.695Z,83.93
2016-06-09T08:43:36.684Z,84.03
2016-06-09T08:44:36.704Z,83.54
2016-06-09T08:45:36.661Z,83.45
2016-06-09T08:46:36.633Z,83.93
2016-06-09T08:47:36.653Z,84.03
2016-06-09T08:48:36.626Z,84.7
2016-06-09T08:49:36.614Z,84.6
2016-06-09T08:50:37.133Z,84.6
2016-06-09T08:51:36.589Z,83.84
2016-06-09T08:52:36.577Z,83.84
2016-06-09T08:53:36.597Z,83.93
2016-06-09T08:54:36.397Z,84.89
2016-06-09T08:55:36.557Z,83.93
2016-06-09T08:56:36.528Z,83.54
2016-06-09T08:57:36.516Z,83.45
2016-06-09T08:58:38.597Z,83.26
2016-06-09T08:59:36.490Z,83.78
2016-06-09T09:00:36.477Z,85.13
2016-06-09T09:01:36.480Z,83.97
2016-06-09T09:02:36.468Z,83.97
2016-06-09T09:03:36.549Z,83.87
2016-06-09T09:04:36.428Z,83.87
2016-06-09T09:05:36.446Z,83.87
2016-06-09T09:06:36.403Z,83.97
2016-06-09T09:07:36.374Z,83.87
2016-06-09T09:08:36.377Z,83.64
2016-06-09T09:09:36.208Z,83.74
2016-06-09T09:10:36.337Z,84.8
2016-06-09T09:11:36.339Z,85.37
2016-06-09T09:12:36.328Z,85.66
2016-06-09T09:13:36.315Z,85.08
2016-06-09T09:14:36.303Z,83.84
2016-06-09T09:15:36.131Z,83.74
2016-06-09T09:16:36.277Z,84.7
2016-06-09T09:17:36.262Z,83.93
2016-06-09T09:18:36.249Z,83.64
2016-06-09T09:19:36.236Z,83.84
2016-06-09T09:20:36.836Z,84.03
2016-06-09T09:21:36.211Z,84.41
2016-06-09T09:22:36.214Z,84.7
2016-06-09T09:23:36.186Z,83.84
2016-06-09T09:24:36.173Z,84.51
2016-06-09T09:25:36.161Z,84.99
2016-06-09T09:26:36.164Z,83.93
2016-06-09T09:27:36.135Z,83.93
2016-06-09T09:28:36.139Z,84.6
2016-06-09T09:29:36.110Z,84.6
2016-06-09T09:30:35.941Z,85.37
2016-06-09T09:31:36.086Z,85.57
2016-06-09T09:32:36.072Z,85.47
2016-06-09T09:33:36.060Z,85.57
2016-06-09T09:34:36.048Z,84.7
2016-06-09T09:35:36.035Z,84.6
2016-06-09T09:36:36.023Z,85.18
2016-06-09T09:37:36.010Z,85.18
2016-06-09T09:38:35.999Z,85.08
2016-06-09T09:39:35.985Z,84.6
2016-06-09T09:40:35.988Z,84.8
2016-06-09T09:41:35.960Z,84.8
2016-06-09T09:42:35.948Z,85.18
2016-06-09T09:43:35.934Z,84.8
2016-06-09T09:44:35.923Z,84.8
2016-06-09T09:45:35.926Z,85.18
2016-06-09T09:46:35.913Z,85.57
2016-06-09T09:47:35.885Z,85.66
2016-06-09T09:48:35.871Z,86.33
2016-06-09T09:49:35.860Z,86.05
2016-06-09T09:50:36.066Z,85.47
2016-06-09T09:51:35.835Z,85.28
2016-06-09T09:52:35.838Z,85.08
2016-06-09T09:53:35.809Z,84.84
2016-06-09T09:54:35.812Z,85.03
2016-06-09T09:55:35.801Z,84.94
2016-06-09T09:56:35.772Z,84.74
2016-06-09T09:57:35.759Z,84.74
2016-06-09T09:58:35.763Z,84.84
2016-06-09T09:59:35.733Z,83.69
2016-06-09T10:00:35.737Z,84.84
2016-06-09T10:01:35.709Z,84.55
2016-06-09T10:02:35.697Z,84.64
2016-06-09T10:03:35.684Z,85.13
2016-06-09T10:04:35.671Z,85.13
2016-06-09T10:05:36.049Z,84.17
2016-06-09T10:06:35.693Z,84.74
2016-06-09T10:07:35.633Z,83.87
2016-06-09T10:08:35.621Z,83.97
2016-06-09T10:09:35.609Z,83.59
2016-06-09T10:10:35.611Z,83.59
2016-06-09T10:11:35.600Z,83.11
2016-06-09T10:12:35.587Z,83.25
2016-06-09T10:13:35.418Z,83.11
2016-06-09T10:14:35.562Z,83.83
2016-06-09T10:15:35.549Z,84.21
2016-06-09T10:16:35.536Z,83.78
2016-06-09T10:17:35.524Z,83.44
2016-06-09T10:18:35.496Z,83.53
2016-06-09T10:19:35.499Z,82.96
2016-06-09T10:20:35.908Z,83.25
2016-06-09T10:21:35.474Z,82.86
2016-06-09T10:22:35.461Z,82.96
2016-06-09T10:23:35.449Z,83.25
2016-06-09T10:24:35.436Z,82.76
2016-06-09T10:25:35.423Z,83.63
2016-06-09T10:26:35.410Z,83.25
2016-06-09T10:27:35.414Z,82.96
2016-06-09T10:28:35.402Z,82.96
2016-06-09T10:29:35.358Z,82.48
2016-06-09T10:30:35.376Z,82.76
2016-06-09T10:31:35.349Z,82.96
2016-06-09T10:32:35.367Z,83.25
2016-06-09T10:33:35.323Z,83.25
2016-06-09T10:34:35.326Z,83.06
2016-06-09T10:35:35.438Z,83.15
2016-06-09T10:36:35.739Z,83.34
2016-06-09T10:37:35.350Z,83.49
2016-06-09T10:38:35.260Z,83.49
2016-06-09T10:39:35.294Z,83.49
2016-06-09T10:40:35.251Z,83.2
2016-06-09T10:41:35.270Z,83.06
2016-06-09T10:42:35.226Z,82.96
2016-06-09T10:43:35.213Z,83.83
2016-06-09T10:44:35.201Z,83.15
2016-06-09T10:45:35.188Z,83.63
2016-06-09T10:46:35.176Z,83.83
2016-06-09T10:47:35.163Z,83.83
2016-06-09T10:48:35.150Z,83.34
2016-06-09T10:49:35.138Z,83.59
2016-06-09T10:50:35.703Z,85.07
2016-06-09T10:51:35.066Z,84.26
2016-06-09T10:52:35.116Z,84.64
2016-06-09T10:53:35.135Z,83.87
2016-06-09T10:54:35.075Z,83.49
2016-06-09T10:55:35.062Z,83.25
2016-06-09T10:56:35.050Z,83.44
2016-06-09T10:57:35.069Z,83.15
2016-06-09T10:58:35.025Z,83.15
2016-06-09T10:59:35.075Z,83.34
2016-06-09T11:00:35.032Z,83.25
2016-06-09T11:01:34.987Z,83.53
2016-06-09T11:02:34.975Z,83.83
2016-06-09T11:03:34.962Z,83.83
2016-06-09T11:04:34.950Z,83.83
2016-06-09T11:05:35.422Z,83.44
2016-06-09T11:06:35.689Z,83.25
2016-06-09T11:07:34.928Z,83.25
2016-06-09T11:08:34.931Z,83.44
2016-06-09T11:09:34.903Z,83.25
2016-06-09T11:10:34.890Z,83.53
2016-06-09T11:11:34.909Z,83.53
2016-06-09T11:12:34.865Z,83.44
2016-06-09T11:13:34.868Z,83.49
2016-06-09T11:14:34.855Z,83.44
2016-06-09T11:15:34.811Z,83.44
2016-06-09T11:16:34.814Z,83.83
2016-06-09T11:17:34.817Z,83.25
2016-06-09T11:18:34.789Z,83.15
2016-06-09T11:19:34.793Z,82.96
2016-06-09T11:20:34.764Z,82.57
2016-06-09T11:21:34.799Z,82.38
2016-06-09T11:22:34.771Z,82.57
2016-06-09T11:23:34.742Z,82.42
2016-06-09T11:24:34.730Z,82.42
2016-06-09T11:25:34.702Z,82.96
2016-06-09T11:26:34.689Z,83.25
2016-06-09T11:27:34.692Z,82.61
2016-06-09T11:28:34.665Z,81.9
2016-06-09T11:29:34.651Z,82.04
2016-06-09T11:30:34.671Z,81.46
2016-06-09T11:31:34.641Z,81.56
2016-06-09T11:32:34.629Z,82.38
2016-06-09T11:33:34.617Z,82.14
2016-06-09T11:34:34.605Z,82.42
2016-06-09T11:35:34.607Z,82.42
2016-06-09T11:36:34.845Z,82.9
2016-06-09T11:37:34.582Z,82.57
2016-06-09T11:38:34.554Z,82.52
2016-06-09T11:39:34.541Z,81.99
2016-06-09T11:40:34.544Z,82.67
2016-06-09T11:41:34.517Z,82.9
2016-06-09T11:42:34.504Z,82.04
2016-06-09T11:43:34.508Z,82.04
2016-06-09T11:44:34.495Z,82.52
2016-06-09T11:45:34.482Z,82.61
2016-06-09T11:46:34.470Z,82.32
2016-06-09T11:47:34.301Z,82.71
2016-06-09T11:48:34.444Z,82.14
2016-06-09T11:49:34.446Z,82.14
2016-06-09T11:50:34.529Z,81.56
2016-06-09T11:51:34.594Z,81.75
2016-06-09T11:52:34.394Z,82.27
2016-06-09T11:53:34.397Z,82.32
2016-06-09T11:54:34.370Z,82.71
2016-06-09T11:55:34.387Z,82.9
2016-06-09T11:56:34.360Z,82.71
2016-06-09T11:57:34.331Z,82.42
2016-06-09T11:58:34.350Z,81.37
2016-06-09T11:59:34.307Z,81.84
2016-06-09T12:00:34.309Z,82.32
2016-06-09T12:01:34.297Z,82.42
2016-06-09T12:02:34.284Z,82.23
2016-06-09T12:03:34.272Z,81.94
2016-06-09T12:04:34.275Z,82.04
2016-06-09T12:05:34.278Z,82.04
2016-06-09T12:06:34.249Z,81.84
2016-06-09T12:07:34.237Z,82.27
2016-06-09T12:08:34.255Z,81.7
2016-06-09T12:09:34.212Z,81.3
2016-06-09T12:10:34.043Z,81.98
2016-06-09T12:11:34.187Z,81.98
2016-06-09T12:12:34.174Z,81.98
2016-06-09T12:13:34.161Z,82.46
2016-06-09T12:14:33.992Z,81.4
2016-06-09T12:15:34.152Z,81.5
2016-06-09T12:16:34.124Z,81.7
2016-06-09T12:17:34.112Z,82.08
2016-06-09T12:18:34.130Z,81.6
2016-06-09T12:19:34.102Z,81.5
2016-06-09T12:20:34.074Z,81.02
2016-06-09T12:21:33.936Z,80.92
2016-06-09T12:22:34.064Z,81.5
2016-06-09T12:23:34.036Z,80.58
2016-06-09T12:24:34.040Z,81.06
2016-06-09T12:25:34.026Z,79.9
2016-06-09T12:26:34.015Z,79.81
2016-06-09T12:27:34.018Z,79.94
2016-06-09T12:28:33.988Z,80.19
2016-06-09T12:29:33.992Z,80.1
2016-06-09T12:30:33.980Z,80.19
2016-06-09T12:31:33.951Z,79.61
2016-06-09T12:32:33.954Z,78.98
2016-06-09T12:33:33.942Z,78.4
2016-06-09T12:34:33.929Z,78.59
2016-06-09T12:35:33.917Z,78.59
2016-06-09T12:36:34.327Z,78.02
2016-06-09T12:37:33.892Z,78.59
2016-06-09T12:38:33.911Z,78.5
2016-06-09T12:39:33.882Z,78.59
2016-06-09T12:40:33.869Z,78.5
2016-06-09T12:41:33.857Z,78.31
2016-06-09T12:42:33.845Z,78.4
2016-06-09T12:43:33.832Z,77.19
2016-06-09T12:44:33.835Z,77.58
2016-06-09T12:45:33.885Z,77.58
2016-06-09T12:46:33.810Z,77.38
2016-06-09T12:47:33.782Z,77.86
2016-06-09T12:48:33.800Z,78.25
2016-06-09T12:49:33.772Z,76.51
2016-06-09T12:50:33.760Z,76.61
2016-06-09T12:51:33.795Z,77.48
2016-06-09T12:52:33.734Z,77.28
2016-06-09T12:53:33.768Z,77.76
2016-06-09T12:54:33.725Z,77.86
2016-06-09T12:55:33.713Z,78.15